Time;durP1;ratioP1;P1;durP2;ratioP2;P2;SDS_P1;SDS_P2;PMS_P1;PMS_P2;Temp;Humidity;BMP_temperature;BMP_pressure;BME280_temperature;BME280_humidity;BME280_pressure;Samples;Min_cycle;Max_cycle;Signal;HPM_P1;HPM_P2
2022/03/21 00:01:00;;;;;;;;;;;;;;;;;;5094074;28;19931;-67
2022/03/21 00:03:29;;;;;;;;;;;;;;;;;;5094605;28;19908;-67
2022/03/21 00:05:55;;;;;;;;;;;;;;;;;;5094376;28;20283;-67
2022/03/21 00:08:25;;;;;;;;;;;;;;;;;;5094017;28;20387;-67
2022/03/21 00:10:51;;;;;;;;;;;;;;;;;;5094310;28;20389;-67
2022/03/21 00:13:16;;;;;;;;;;;;;;;;;;5094277;28;19908;-67
2022/03/21 00:15:43;;;;;;;;;;;;;;;;;;5093881;28;19961;-67
2022/03/21 00:18:09;;;;;;;;;;;;;;;;;;5094358;28;19908;-67
2022/03/21 00:20:35;;;;;;;;;;;;;;;;;;5094345;28;19919;-67
2022/03/21 00:23:01;;;;;;;;;;;;;;;;;;5092434;28;19958;-67
2022/03/21 00:25:27;;;;;;;;;;;;;;;;;;5094127;28;19916;-67
2022/03/21 00:27:53;;;;;;;;;;;;;;;;;;5094190;28;20003;-67
2022/03/21 00:30:19;;;;;;;;;;;;;;;;;;5093686;28;19951;-67
2022/03/21 00:32:46;;;;;;;;;;;;;;;;;;5092751;28;19912;-67
2022/03/21 00:35:14;;;;;;;;;;;;;;;;;;5092765;28;20276;-67
2022/03/21 00:37:40;;;;;;;;;;;;;;;;;;5093577;28;19908;-67
2022/03/21 00:40:07;;;;;;;;;;;;;;;;;;5092646;28;20432;-67
2022/03/21 00:42:34;;;;;;;;;;;;;;;;;;5092572;28;19915;-67
2022/03/21 00:45:00;;;;;;;;;;;;;;;;;;5091933;28;19920;-67
2022/03/21 00:47:26;;;;;;;;;;;;;;;;;;5094085;28;19912;-67
2022/03/21 00:49:52;;;;;;;;;;;;;;;;;;5093799;28;19908;-67
2022/03/21 00:52:18;;;;;;;;;;;;;;;;;;5093444;28;20012;-67
2022/03/21 00:54:44;;;;;;;;;;;;;;;;;;5092547;28;20380;-67
2022/03/21 00:57:10;;;;;;;;;;;;;;;;;;5093632;28;19908;-67
2022/03/21 00:59:36;;;;;;;;;;;;;;;;;;5093742;28;19930;-68
2022/03/21 01:02:02;;;;;;;;;;;;;;;;;;5094019;28;19919;-67
2022/03/21 01:04:28;;;;;;;;;;;;;;;;;;5093278;28;19912;-67
2022/03/21 01:06:54;;;;;;;;;;;;;;;;;;5094762;28;19950;-67
2022/03/21 01:09:20;;;;;;;;;;;;;;;;;;5096502;28;20432;-67
2022/03/21 01:11:46;;;;;;;;;;;;;;;;;;5097809;28;19961;-67
2022/03/21 01:14:12;;;;;;;;;;;;;;;;;;5096475;28;19908;-67
2022/03/21 01:16:38;;;;;;;;;;;;;;;;;;5097784;28;19909;-67
2022/03/21 01:19:04;;;;;;;;;;;;;;;;;;5095989;28;19908;-67
2022/03/21 01:21:30;;;;;;;;;;;;;;;;;;5096219;28;19908;-67
2022/03/21 01:23:56;;;;;;;;;;;;;;;;;;5096193;28;19915;-67
2022/03/21 01:26:22;;;;;;;;;;;;;;;;;;5095708;28;20333;-67
2022/03/21 01:28:48;;;;;;;;;;;;;;;;;;5097396;28;19908;-67
2022/03/21 01:31:14;;;;;;;;;;;;;;;;;;5097549;28;20003;-67
2022/03/21 01:33:41;;;;;;;;;;;;;;;;;;5096944;28;19908;-67
2022/03/21 01:36:07;;;;;;;;;;;;;;;;;;5097533;28;19961;-67
2022/03/21 01:38:33;;;;;;;;;;;;;;;;;;5097287;28;20382;-67
2022/03/21 01:40:59;;;;;;;;;;;;;;;;;;5096850;28;19999;-67
2022/03/21 01:43:25;;;;;;;;;;;;;;;;;;5096008;28;19916;-68
2022/03/21 01:45:51;;;;;;;;;;;;;;;;;;5096831;28;19920;-68
2022/03/21 01:48:17;;;;;;;;;;;;;;;;;;5096666;28;20283;-67
2022/03/21 01:50:43;;;;;;;;;;;;;;;;;;5095982;28;19951;-67
2022/03/21 01:55:53;;;;;;;;;;;;;;;;;;5096978;28;19931;-68
2022/03/21 01:58:20;;;;;;;;;;;;;;;;;;5096944;28;20346;-68
2022/03/21 02:00:46;;;;;;;;;;;;;;;;;;5096625;28;19908;-68
2022/03/21 02:03:14;;;;;;;;;;;;;;;;;;5096768;28;20287;-68
2022/03/21 02:05:39;;;;;;;;;;;;;;;;;;5095435;28;20338;-68
2022/03/21 02:08:06;;;;;;;;;;;;;;;;;;5096350;28;19915;-68
2022/03/21 02:10:31;;;;;;;;;;;;;;;;;;5096761;28;19908;-67
2022/03/21 02:12:57;;;;;;;;;;;;;;;;;;5096582;28;19977;-68
2022/03/21 02:15:23;;;;;;;;;;;;;;;;;;5094802;28;19908;-68
2022/03/21 02:17:49;;;;;;;;;;;;;;;;;;5096322;28;19908;-67
2022/03/21 02:20:15;;;;;;;;;;;;;;;;;;5096489;28;19931;-67
2022/03/21 02:22:41;;;;;;;;;;;;;;;;;;5096156;28;19915;-67
2022/03/21 02:25:07;;;;;;;;;;;;;;;;;;5096325;28;20015;-67
2022/03/21 02:27:33;;;;;;;;;;;;;;;;;;5096290;28;19909;-67
2022/03/21 02:30:00;;;;;;;;;;;;;;;;;;5094551;28;20003;-67
2022/03/21 02:32:26;;;;;;;;;;;;;;;;;;5096279;28;19915;-66
2022/03/21 02:34:51;;;;;;;;;;;;;;;;;;5096251;28;19909;-66
2022/03/21 02:37:17;;;;;;;;;;;;;;;;;;5094468;28;19908;-66
2022/03/21 02:39:44;;;;;;;;;;;;;;;;;;5096465;28;19969;-66
2022/03/21 02:42:10;;;;;;;;;;;;;;;;;;5096096;28;19931;-67
2022/03/21 02:44:36;;;;;;;;;;;;;;;;;;5095654;28;19919;-67
2022/03/21 02:47:02;;;;;;;;;;;;;;;;;;5096005;28;20379;-67
2022/03/21 02:49:28;;;;;;;;;;;;;;;;;;5096022;28;19908;-67
2022/03/21 02:51:54;;;;;;;;;;;;;;;;;;5095404;28;20317;-66
2022/03/21 02:54:22;;;;;;;;;;;;;;;;;;5096269;28;19961;-66
2022/03/21 02:56:48;;;;;;;;;;;;;;;;;;5095370;28;19912;-66
2022/03/21 02:59:14;;;;;;;;;;;;;;;;;;5094349;28;20440;-66
2022/03/21 03:01:40;;;;;;;;;;;;;;;;;;5095797;28;19987;-66
2022/03/21 03:04:06;;;;;;;;;;;;;;;;;;5095266;28;19953;-66
2022/03/21 03:06:32;;;;;;;;;;;;;;;;;;5094297;28;19974;-66
2022/03/21 03:08:58;;;;;;;;;;;;;;;;;;5096057;28;20349;-66
2022/03/21 03:11:24;;;;;;;;;;;;;;;;;;5095156;28;20050;-66
2022/03/21 03:13:50;;;;;;;;;;;;;;;;;;5095441;28;20308;-66
2022/03/21 03:16:16;;;;;;;;;;;;;;;;;;5095595;28;19915;-66
2022/03/21 03:18:44;;;;;;;;;;;;;;;;;;5094972;28;19908;-67
2022/03/21 03:21:10;;;;;;;;;;;;;;;;;;5095325;28;20254;-66
2022/03/21 03:23:37;;;;;;;;;;;;;;;;;;5095564;28;20364;-66
2022/03/21 03:26:03;;;;;;;;;;;;;;;;;;5094796;28;19916;-66
2022/03/21 03:28:29;;;;;;;;;;;;;;;;;;5093277;28;19941;-66
2022/03/21 03:30:55;;;;;;;;;;;;;;;;;;5094863;28;19912;-67
2022/03/21 03:33:21;;;;;;;;;;;;;;;;;;5094715;28;19995;-67
2022/03/21 03:35:47;;;;;;;;;;;;;;;;;;5093860;28;20033;-67
2022/03/21 03:38:13;;;;;;;;;;;;;;;;;;5093727;28;19940;-67
2022/03/21 03:40:39;;;;;;;;;;;;;;;;;;5094482;28;19943;-67
2022/03/21 03:43:05;;;;;;;;;;;;;;;;;;5094791;28;20372;-67
2022/03/21 03:45:31;;;;;;;;;;;;;;;;;;5094618;28;20284;-67
2022/03/21 03:47:57;;;;;;;;;;;;;;;;;;5094455;28;19908;-67
2022/03/21 03:50:23;;;;;;;;;;;;;;;;;;5094698;28;19915;-67
2022/03/21 03:52:49;;;;;;;;;;;;;;;;;;5093379;28;19908;-67
2022/03/21 03:55:17;;;;;;;;;;;;;;;;;;5093653;28;19965;-67
2022/03/21 03:57:43;;;;;;;;;;;;;;;;;;5094579;28;19940;-67
2022/03/21 04:00:09;;;;;;;;;;;;;;;;;;5094621;28;19961;-67
2022/03/21 04:03:44;;;;;;;;;;;;;;;;;;5095078;28;19948;-67
2022/03/21 04:05:21;;;;;;;;;;;;;;;;;;5094248;28;19916;-67
2022/03/21 04:07:47;;;;;;;;;;;;;;;;;;5092728;28;19908;-67
2022/03/21 04:10:13;;;;;;;;;;;;;;;;;;5094347;28;20038;-67
2022/03/21 04:12:39;;;;;;;;;;;;;;;;;;5094311;28;19914;-67
2022/03/21 04:15:05;;;;;;;;;;;;;;;;;;5093898;28;19912;-67
2022/03/21 04:17:31;;;;;;;;;;;;;;;;;;5092996;28;19908;-67
2022/03/21 04:19:57;;;;;;;;;;;;;;;;;;5094241;28;19999;-67
2022/03/21 04:22:23;;;;;;;;;;;;;;;;;;5094047;28;19995;-66
2022/03/21 04:24:49;;;;;;;;;;;;;;;;;;5094224;28;20429;-67
2022/03/21 04:27:15;;;;;;;;;;;;;;;;;;5092852;28;19916;-67
2022/03/21 04:29:41;;;;;;;;;;;;;;;;;;5093798;28;20349;-67
2022/03/21 04:32:07;;;;;;;;;;;;;;;;;;5094048;28;19923;-68
2022/03/21 04:34:33;;;;;;;;;;;;;;;;;;5092723;28;19908;-67
2022/03/21 04:36:59;;;;;;;;;;;;;;;;;;5093634;28;19909;-67
2022/03/21 04:39:25;;;;;;;;;;;;;;;;;;5093987;28;19919;-66
2022/03/21 04:41:51;;;;;;;;;;;;;;;;;;5094380;28;19999;-66
2022/03/21 04:44:17;;;;;;;;;;;;;;;;;;5091874;28;19947;-66
2022/03/21 04:46:43;;;;;;;;;;;;;;;;;;5093873;28;20275;-66
2022/03/21 04:49:09;;;;;;;;;;;;;;;;;;5093457;28;19912;-67
2022/03/21 04:51:35;;;;;;;;;;;;;;;;;;5094061;28;19909;-66
2022/03/21 04:54:01;;;;;;;;;;;;;;;;;;5093832;28;19934;-67
2022/03/21 04:56:27;;;;;;;;;;;;;;;;;;5093438;28;19912;-67
2022/03/21 04:58:53;;;;;;;;;;;;;;;;;;5092548;28;19908;-67
2022/03/21 05:01:19;;;;;;;;;;;;;;;;;;5092462;28;19909;-67
2022/03/21 05:03:45;;;;;;;;;;;;;;;;;;5093327;28;20291;-67
2022/03/21 05:06:12;;;;;;;;;;;;;;;;;;5093929;28;19970;-66
2022/03/21 05:08:38;;;;;;;;;;;;;;;;;;5092396;28;20003;-67
2022/03/21 05:11:04;;;;;;;;;;;;;;;;;;5091969;28;19939;-67
2022/03/21 05:13:30;;;;;;;;;;;;;;;;;;5093674;28;19915;-67
2022/03/21 05:15:57;;;;;;;;;;;;;;;;;;5093799;28;20364;-67
2022/03/21 05:18:23;;;;;;;;;;;;;;;;;;5093351;28;20330;-67
2022/03/21 05:20:48;;;;;;;;;;;;;;;;;;5092313;28;19912;-67
2022/03/21 05:31:29;;;;;;;;;;;;;;;;;;5092733;28;19953;-68
2022/03/21 05:36:39;;;;;;;;;;;;;;;;;;5093765;28;19961;-68
2022/03/21 05:39:05;;;;;;;;;;;;;;;;;;5092932;28;19965;-68
2022/03/21 05:41:31;;;;;;;;;;;;;;;;;;5091993;28;19908;-68
2022/03/21 05:43:57;;;;;;;;;;;;;;;;;;5092972;28;19908;-69
2022/03/21 05:46:23;;;;;;;;;;;;;;;;;;5093247;28;20285;-69
2022/03/21 05:49:23;;;;;;;;;;;;;;;;;;5093720;28;20387;-68
2022/03/21 05:51:42;;;;;;;;;;;;;;;;;;5091244;28;20322;-69
2022/03/21 05:54:11;;;;;;;;;;;;;;;;;;5095186;28;19961;-71
2022/03/21 05:56:37;;;;;;;;;;;;;;;;;;5096927;28;19911;-69
2022/03/21 06:01:47;;;;;;;;;;;;;;;;;;5100980;28;19915;-69
2022/03/21 06:04:15;;;;;;;;;;;;;;;;;;5117109;28;20356;-68
2022/03/21 06:06:41;;;;;;;;;;;;;;;;;;5098586;28;20036;-68
2022/03/21 06:09:07;;;;;;;;;;;;;;;;;;5093173;28;20356;-67
2022/03/21 06:11:34;;;;;;;;;;;;;;;;;;5095629;28;19969;-68
2022/03/21 06:14:00;;;;;;;;;;;;;;;;;;5094852;28;19915;-68
2022/03/21 06:16:27;;;;;;;;;;;;;;;;;;5092953;28;19908;-69
2022/03/21 06:18:53;;;;;;;;;;;;;;;;;;5102343;28;19951;-68
2022/03/21 06:21:19;;;;;;;;;;;;;;;;;;5094686;28;19908;-69
2022/03/21 06:23:46;;;;;;;;;;;;;;;;;;5094130;28;19912;-70
2022/03/21 06:26:12;;;;;;;;;;;;;;;;;;5092701;28;19916;-70
2022/03/21 06:28:38;;;;;;;;;;;;;;;;;;5092451;28;19912;-71
2022/03/21 06:31:04;;;;;;;;;;;;;;;;;;5093985;28;20006;-69
2022/03/21 06:33:34;;;;;;;;;;;;;;;;;;5093659;28;19912;-69
2022/03/21 06:36:00;;;;;;;;;;;;;;;;;;5093795;28;20041;-68
2022/03/21 06:38:26;;;;;;;;;;;;;;;;;;5092407;28;20006;-69
2022/03/21 06:40:52;;;;;;;;;;;;;;;;;;5095267;28;19914;-71
2022/03/21 06:43:20;;;;;;;;;;;;;;;;;;5100339;28;19908;-70
2022/03/21 06:45:51;;;;;;;;;;;;;;;;;;5115311;28;19920;-71
2022/03/21 06:48:17;;;;;;;;;;;;;;;;;;5115647;28;20264;-72
2022/03/21 06:50:43;;;;;;;;;;;;;;;;;;5114474;28;19908;-71
2022/03/21 06:53:09;;;;;;;;;;;;;;;;;;5115605;27;19915;-69
2022/03/21 06:55:35;;;;;;;;;;;;;;;;;;5096896;28;20368;-69
2022/03/21 06:58:03;;;;;;;;;;;;;;;;;;5093335;28;19912;-69
2022/03/21 07:00:29;;;;;;;;;;;;;;;;;;5093994;28;19908;-68
2022/03/21 07:02:55;;;;;;;;;;;;;;;;;;5093471;28;19919;-71
2022/03/21 07:05:21;;;;;;;;;;;;;;;;;;5094901;28;20376;-68
2022/03/21 07:07:50;;;;;;;;;;;;;;;;;;5092984;28;19908;-68
2022/03/21 07:10:16;;;;;;;;;;;;;;;;;;5092719;28;19908;-70
2022/03/21 07:12:42;;;;;;;;;;;;;;;;;;5094042;28;19914;-68
2022/03/21 07:15:08;;;;;;;;;;;;;;;;;;5094950;28;19908;-69
2022/03/21 07:17:34;;;;;;;;;;;;;;;;;;5106578;28;19912;-67
2022/03/21 07:20:00;;;;;;;;;;;;;;;;;;5092152;28;19913;-70
2022/03/21 07:22:26;;;;;;;;;;;;;;;;;;5091380;28;19935;-68
2022/03/21 07:24:54;;;;;;;;;;;;;;;;;;5091808;28;19919;-69
2022/03/21 07:27:20;;;;;;;;;;;;;;;;;;5093901;28;20356;-72
2022/03/21 07:29:46;;;;;;;;;;;;;;;;;;5092091;28;19920;-70
2022/03/21 07:32:12;;;;;;;;;;;;;;;;;;5093328;28;19909;-69
2022/03/21 07:34:39;;;;;;;;;;;;;;;;;;5094060;28;20306;-70
2022/03/21 07:37:05;;;;;;;;;;;;;;;;;;5092713;28;19916;-71
2022/03/21 07:39:34;;;;;;;;;;;;;;;;;;5093446;28;19908;-69
2022/03/21 07:42:01;;;;;;;;;;;;;;;;;;5094141;28;19908;-70
2022/03/21 07:47:20;;;;;;;;;;;;;;;;;;5093565;28;19974;-70
2022/03/21 07:49:46;;;;;;;;;;;;;;;;;;5093208;28;19912;-68
2022/03/21 07:52:12;;;;;;;;;;;;;;;;;;5091970;28;19915;-69
2022/03/21 07:54:39;;;;;;;;;;;;;;;;;;5094008;28;19944;-69
2022/03/21 07:57:05;;;;;;;;;;;;;;;;;;5093489;28;20020;-70
2022/03/21 07:59:31;;;;;;;;;;;;;;;;;;5093210;28;20312;-68
2022/03/21 08:01:58;;;;;;;;;;;;;;;;;;5093818;28;19952;-71
2022/03/21 08:04:24;;;;;;;;;;;;;;;;;;5093098;28;19915;-69
2022/03/21 08:06:50;;;;;;;;;;;;;;;;;;5092929;28;20284;-68
2022/03/21 08:09:16;;;;;;;;;;;;;;;;;;5091970;28;20287;-67
2022/03/21 08:11:42;;;;;;;;;;;;;;;;;;5091344;28;20254;-70
2022/03/21 08:14:08;;;;;;;;;;;;;;;;;;5091419;28;19914;-69
2022/03/21 08:16:34;;;;;;;;;;;;;;;;;;5090742;28;19912;-71
2022/03/21 08:19:00;;;;;;;;;;;;;;;;;;5091367;28;20276;-71
2022/03/21 08:21:26;;;;;;;;;;;;;;;;;;5092408;28;19912;-71
2022/03/21 08:23:52;;;;;;;;;;;;;;;;;;5092799;28;19919;-71
2022/03/21 08:26:18;;;;;;;;;;;;;;;;;;5093028;28;19915;-70
2022/03/21 08:28:45;;;;;;;;;;;;;;;;;;5090871;28;19908;-69
2022/03/21 08:31:12;;;;;;;;;;;;;;;;;;5092587;28;19973;-71
2022/03/21 08:33:38;;;;;;;;;;;;;;;;;;5090586;28;20006;-70
2022/03/21 08:36:04;;;;;;;;;;;;;;;;;;5091706;28;20399;-71
2022/03/21 08:38:30;;;;;;;;;;;;;;;;;;5090940;28;19908;-70
2022/03/21 08:40:57;;;;;;;;;;;;;;;;;;5092716;28;20221;-70
2022/03/21 08:43:23;;;;;;;;;;;;;;;;;;5091066;28;19911;-69
2022/03/21 08:45:49;;;;;;;;;;;;;;;;;;5091138;28;20441;-70
2022/03/21 08:48:15;;;;;;;;;;;;;;;;;;5091186;28;19908;-71
2022/03/21 08:50:41;;;;;;;;;;;;;;;;;;5092057;28;19991;-72
2022/03/21 08:53:08;;;;;;;;;;;;;;;;;;5091527;28;19939;-73
2022/03/21 08:55:34;;;;;;;;;;;;;;;;;;5092109;28;20837;-71
2022/03/21 08:58:00;;;;;;;;;;;;;;;;;;5093687;28;20083;-73
2022/03/21 09:00:28;;;;;;;;;;;;;;;;;;5110046;28;19908;-71
2022/03/21 09:02:56;;;;;;;;;;;;;;;;;;5108284;28;19908;-69
2022/03/21 09:05:22;;;;;;;;;;;;;;;;;;5110053;28;20272;-69
2022/03/21 09:07:48;;;;;;;;;;;;;;;;;;5101308;28;19915;-70
2022/03/21 09:10:15;;;;;;;;;;;;;;;;;;5090234;28;20443;-70
2022/03/21 09:12:43;;;;;;;;;;;;;;;;;;5088417;28;19908;-68
2022/03/21 09:15:09;;;;;;;;;;;;;;;;;;5091361;28;19915;-71
2022/03/21 09:17:35;;;;;;;;;;;;;;;;;;5091007;28;19913;-71
2022/03/21 09:20:01;;;;;;;;;;;;;;;;;;5091097;28;19909;-68
2022/03/21 09:22:27;;;;;;;;;;;;;;;;;;5089576;28;20052;-71
2022/03/21 09:24:53;;;;;;;;;;;;;;;;;;5089986;28;19916;-71
2022/03/21 09:27:20;;;;;;;;;;;;;;;;;;5089206;28;19916;-69
2022/03/21 09:29:46;;;;;;;;;;;;;;;;;;5094451;28;19909;-70
2022/03/21 09:32:12;;;;;;;;;;;;;;;;;;5090553;28;19957;-71
2022/03/21 09:34:39;;;;;;;;;;;;;;;;;;5094502;28;19950;-71
2022/03/21 09:38:20;;;;;;;650.63;307.83;;;;;;;;;;5068515;28;20477;-70
2022/03/21 09:40:47;;;;;;;485.30;276.88;;;;;;;;;;5067820;28;20443;-70
2022/03/21 09:44:53;;;;;;;455.08;266.27;;;;;;;;;;5069087;28;20764;-71
2022/03/21 09:50:08;;;;;;;388.48;240.95;;;;;;;;;;5069532;28;20174;-71
2022/03/21 09:52:34;;;;;;;356.55;235.77;;;;;;;;;;5068256;28;20517;-70
2022/03/21 09:55:57;;;;;;;459.25;263.30;;;;;;;;;;5110546;27;20417;-70
2022/03/21 09:58:23;;;;;;;440.45;263.10;;;;;;;;;;5107870;28;20031;-71
2022/03/21 10:00:49;;;;;;;420.08;251.18;;;;;;;;;;5109713;28;20067;-71
2022/03/21 10:03:18;;;;;;;429.80;260.52;;;;;;;;;;5109738;28;20024;-70
2022/03/21 10:05:50;;;;;;;429.67;260.85;;;;;;;;;;5107898;28;20071;-71
2022/03/21 10:08:21;;;;;;;411.70;252.15;;;;;;;;;;5106762;28;20023;-69
2022/03/21 10:10:55;;;;;;;417.63;254.25;;;;;;;;;;5102704;28;20020;-71
2022/03/21 10:13:22;;;;;;;404.48;245.60;;;;;;;;;;5086186;28;20024;-71
2022/03/21 10:15:49;;;;;;;436.65;266.15;;;;;;;;;;5086363;28;20040;-71
2022/03/21 10:18:18;;;;;;;425.50;261.73;;;;;;;;;;5086617;28;20525;-70
2022/03/21 10:20:45;;;;;;;406.75;253.30;;;;;;;;;;5088032;28;20027;-73
2022/03/21 10:23:19;;;;;;;395.92;243.23;;;;;;;;;;5089359;28;20111;-70
2022/03/21 10:31:33;;;;;;;457.63;271.75;;;;;;;;;;5109536;27;20445;-70
2022/03/21 10:33:59;;;;;;;;;;;;;;;;;;5110564;28;20099;-71
2022/03/21 10:36:25;;;;;;;;;;;;;;;;;;5094565;28;19962;-70
2022/03/21 10:38:51;;;;;;;;;;;;;;;;;;5105992;28;19904;-70
2022/03/21 10:41:17;;;;;;;;;;;;;;;;;;5088776;28;19912;-68
2022/03/21 10:43:43;;;;;;;;;;;;;;;;;;5090148;28;20011;-69
2022/03/21 10:46:09;;;;;;;;;;;;;;;;;;5090474;28;19911;-70
2022/03/21 10:48:36;;;;;;;;;;;;;;;;;;5105773;28;19904;-71
2022/03/21 10:56:10;;;;;;;545.38;292.80;;;;;;;;;;5110217;27;20392;-68
2022/03/21 10:58:37;;;;;;;426.08;261.73;;;;;;;;;;5107945;28;20028;-70
2022/03/21 11:01:17;;;;;;;397.25;249.43;;;;;;;;;;5108932;28;20598;-68
2022/03/21 11:05:26;;;;;;;469.80;274.00;;;;;;;;;;5171807;27;20310;-69
2022/03/21 11:07:53;;;;;;;383.10;244.85;;;;;;;;;;5151197;27;20098;-69
2022/03/21 11:10:20;;;;;;;367.27;241.27;;;;;;;;;;5150515;27;20019;-70
2022/03/21 11:12:47;;;;;;;326.05;227.13;;;;;;;;;;5150853;27;20025;-69
2022/03/21 11:15:14;;;;;;;305.23;217.93;;;;;;;;;;5150325;27;20029;-68
2022/03/21 11:17:41;;;;;;;282.98;207.60;;;;;;;;;;5151057;27;20071;-69
2022/03/21 11:20:38;;;;;;;413.23;252.60;;;;;;;;;;5090127;27;21201;-72
2022/03/21 11:25:22;;;;;;;401.73;253.63;;;;;;;;;;5087922;27;20451;-69
2022/03/21 11:28:06;;;;;;;340.30;228.75;;;;;;;;;;5084095;28;20459;-71
2022/03/21 11:30:42;;;;;;;350.60;233.27;;;;;;;;;;5086815;28;20119;-71
2022/03/21 11:33:08;;;;;;;;;;;;;;;;;;5088460;28;20035;-70
2022/03/21 11:35:34;;;;;;;;;;;;;;;;;;5088184;28;20285;-70
2022/03/21 11:38:30;;;;;;;;;;;;;;;;;;5077365;27;20375;-70
2022/03/21 11:40:57;;;;;;;;;;;;;;;;;;5083616;28;19909;-72
2022/03/21 11:43:23;;;;;;;197.73;176.23;;;;;;;;;;5087960;28;20392;-70
2022/03/21 11:45:53;;;;;;;133.10;122.90;;;;;;;;;;5086305;28;20471;-70
2022/03/21 11:48:19;;;;;;;;;;;;;;;;;;5089332;28;20077;-70
2022/03/21 11:50:45;;;;;;;;;;;;;;;;;;5088093;28;20360;-71
2022/03/21 11:53:11;;;;;;;;;;;;;;;;;;5087734;28;20303;-71
2022/03/21 11:55:37;;;;;;;;;;;;;;;;;;5089805;28;20372;-71
2022/03/21 11:58:03;;;;;;;;;;;;;;;;;;5088765;28;20019;-71
2022/03/21 12:00:29;;;;;;;;;;;;;;;;;;5086876;28;20400;-71
2022/03/21 12:02:56;;;;;;;;;;;;;;;;;;5088483;28;20357;-73
2022/03/21 12:05:22;;;;;;;;;;;;;;;;;;5088215;28;20310;-70
2022/03/21 12:07:48;;;;;;;;;;;;;;;;;;5088910;28;19904;-70
2022/03/21 12:12:27;;;;;;;;;;;;;;;;;;5089812;28;19916;-71
2022/03/21 12:14:56;;;;;;;;;;;;;;;;;;5070384;28;19952;-70
2022/03/21 12:17:22;;;;;;;;;;;;;;;;;;5102293;28;19913;-70
2022/03/21 12:23:09;;;;;;;;;;;;;;;;;;5129007;27;20696;-70
2022/03/21 12:25:36;;;;;;;;;;;;;;;;;;5128794;28;19914;-69
2022/03/21 12:28:02;;;;;;;;;;;;;;;;;;5129353;28;19908;-70
2022/03/21 12:31:53;;;;;;;;;;;;;;;;;;5086230;27;19913;-72
2022/03/21 12:34:19;;;;;;;;;;;;;;;;;;5086144;28;20405;-71
2022/03/21 12:36:45;;;;;;;;;;;;;;;;;;5089045;28;19908;-71
2022/03/21 12:39:11;;;;;;;;;;;;;;;;;;5085583;28;19909;-72
2022/03/21 12:41:37;;;;;;;;;;;;;;;;;;5089140;28;20315;-71
2022/03/21 12:46:07;;;;;;;;;;;;;;;;;;5090326;28;20296;-72
2022/03/21 12:50:21;;;;;;;;;;;;;;;;;;5110636;27;19920;-70
2022/03/21 12:54:33;;;;;;;;;;;;;;;;;;5090639;27;19916;-69
2022/03/21 12:56:59;;;;;;;;;;;;;;;;;;5089755;28;19995;-71
2022/03/21 13:10:35;;;;;;;;;;;;;;;;;;5089324;27;19913;-68
2022/03/21 13:13:01;;;;;;;;;;;;;;;;;;5089770;28;19913;-69
2022/03/21 13:15:27;;;;;;;;;;;;;;;;;;5089240;28;19926;-71
2022/03/21 13:17:57;;;;;;;;;;;;;;;;;;5088016;28;19931;-70
2022/03/21 13:24:03;;;;;;;;;;;;;;;;;;5109739;27;19916;-70
2022/03/21 13:26:29;;;;;;;;;;;;;;;;;;5110209;28;19912;-69
2022/03/21 13:28:55;;;;;;;;;;;;;;;;;;5110450;28;19908;-68
2022/03/21 13:33:11;;;;;;;;;;;;;;;;;;5088468;28;19916;-69
2022/03/21 13:35:37;;;;;;;;;;;;;;;;;;5088773;28;20281;-68
2022/03/21 13:38:03;;;;;;;;;;;;;;;;;;5087728;28;19915;-70
2022/03/21 13:40:29;;;;;;;;;;;;;;;;;;5089443;28;19915;-69
2022/03/21 13:42:55;;;;;;;;;;;;;;;;;;5089768;28;19909;-70
2022/03/21 13:45:22;;;;;;;;;;;;;;;;;;5089478;28;19916;-70
2022/03/21 13:47:48;;;;;;;;;;;;;;;;;;5090059;28;19908;-70
2022/03/21 13:50:14;;;;;;;;;;;;;;;;;;5088643;28;19908;-70
2022/03/21 13:52:44;;;;;;;;;;;;;;;;;;5090314;28;19965;-70
2022/03/21 13:55:15;;;;;;;10.95;6.55;;;;;;;;;;5089076;28;20403;-72
2022/03/21 13:57:51;;;;;;;10.88;6.80;;;;;;;;;;5089582;28;20085;-72
2022/03/21 14:00:25;;;;;;;11.25;6.75;;;;;;;;;;5088435;28;20028;-70
2022/03/21 14:02:53;;;;;;;14.07;6.68;;;;;;;;;;5090046;28;20028;-70
2022/03/21 14:05:20;;;;;;;13.93;8.18;;;;;;;;;;5089584;28;20024;-71
2022/03/21 14:07:48;;;;;;;15.63;8.05;;;;;;;;;;5089952;28;20016;-69
2022/03/21 14:10:15;;;;;;;15.50;6.45;;;;;;;;;;5090062;28;20077;-71
2022/03/21 14:12:42;;;;;;;14.25;6.88;;;;;;;;;;5089242;28;20051;-70
2022/03/21 14:15:10;;;;;;;16.35;7.35;;;;;;;;;;5089941;28;20066;-69
2022/03/21 14:17:38;;;;;;;12.75;6.50;;;;;;;;;;5090023;28;20020;-69
2022/03/21 14:20:05;;;;;;;13.82;7.40;;;;;;;;;;5088210;28;20333;-69
2022/03/21 14:22:31;;;;;;;14.18;7.70;;;;;;;;;;5090017;28;20118;-69
2022/03/21 14:24:58;;;;;;;14.82;8.68;;;;;;;;;;5089819;28;20020;-69
2022/03/21 14:27:24;;;;;;;16.38;7.15;;;;;;;;;;5089296;28;20031;-69
2022/03/21 14:29:50;;;;;;;11.95;6.07;;;;;;;;;;5089725;28;20063;-69
2022/03/21 14:32:16;;;;;;;11.05;6.25;;;;;;;;;;5102652;28;20075;-69
2022/03/21 14:35:01;;;;;;;12.25;5.70;;;;;;;;;;5110600;27;20450;-69
2022/03/21 14:37:27;;;;;;;7.35;4.15;;;;;;;;;;5109483;28;20020;-68
2022/03/21 14:39:53;;;;;;;9.45;4.80;;;;;;;;;;5110793;28;20031;-69
2022/03/21 14:42:19;;;;;;;10.23;4.70;;;;;;;;;;5110317;28;20494;-69
2022/03/21 14:44:46;;;;;;;10.07;4.45;;;;;;;;;;5109487;28;20102;-69
2022/03/21 14:47:12;;;;;;;11.27;4.57;;;;;;;;;;5110426;28;20460;-69
2022/03/21 14:51:27;;;;;;;11.88;7.22;;;;;;;;;;5123563;27;20439;-68
2022/03/21 14:53:53;;;;;;;13.07;5.45;;;;;;;;;;5090758;28;20107;-69
2022/03/21 14:56:20;;;;;;;9.98;5.95;;;;;;;;;;5088899;28;20495;-68
2022/03/21 14:58:48;;;;;;;10.65;4.88;;;;;;;;;;5090683;28;20024;-68
2022/03/21 15:01:16;;;;;;;13.27;6.47;;;;;;;;;;5090179;28;20457;-69
2022/03/21 15:05:47;;;;;;;9.43;5.95;;;;;;;;;;5071024;28;20391;-70
2022/03/21 15:08:14;;;;;;;11.38;5.78;;;;;;;;;;5070137;28;20025;-69
2022/03/21 15:10:41;;;;;;;9.18;4.85;;;;;;;;;;5070517;28;20056;-70
2022/03/21 15:13:11;;;;;;;19.35;6.63;;;;;;;;;;5070369;28;20484;-69
2022/03/21 15:17:11;;;;;;;9.57;5.13;;;;;;;;;;5110723;27;20501;-68
2022/03/21 15:19:37;;;;;;;10.77;5.50;;;;;;;;;;5126960;28;20031;-68
2022/03/21 15:23:05;;;;;;;11.13;6.72;;;;;;;;;;5111185;27;20408;-69
2022/03/21 15:25:32;;;;;;;10.10;6.20;;;;;;;;;;5111036;28;20626;-67
2022/03/21 15:27:58;;;;;;;13.55;6.20;;;;;;;;;;5104664;28;20020;-68
2022/03/21 15:30:24;;;;;;;13.70;5.10;;;;;;;;;;5091621;28;20477;-69
2022/03/21 15:33:12;;;;;;;12.50;5.63;;;;;;;;;;5070866;28;20919;-69
2022/03/21 15:35:39;;;;;;;8.82;5.13;;;;;;;;;;5070525;28;20504;-69
2022/03/21 15:43:22;;;;;;;11.75;6.47;;;;;;;;;;5070019;28;20177;-68
2022/03/21 15:47:47;;;;;;;16.05;8.30;;;;;;;;;;5070674;28;20387;-69
2022/03/21 15:50:26;;;;;;;18.88;9.60;;;;;;;;;;5111382;27;20420;-69
2022/03/21 15:52:52;;;;;;;13.82;6.00;;;;;;;;;;5111266;28;20032;-70
2022/03/21 15:55:18;;;;;;;8.82;5.43;;;;;;;;;;5111114;28;20058;-68
2022/03/21 15:58:06;;;;;;;11.27;6.20;;;;;;;;;;5110741;28;20039;-68
2022/03/21 16:01:18;;;;;;;15.15;7.18;;;;;;;;;;5091221;27;20417;-70
2022/03/21 16:03:44;;;;;;;11.60;6.53;;;;;;;;;;5090941;28;20445;-70
2022/03/21 16:06:10;;;;;;;11.07;6.45;;;;;;;;;;5089094;28;20020;-71
2022/03/21 16:08:37;;;;;;;12.98;7.85;;;;;;;;;;5090726;28;20481;-70
2022/03/21 16:11:03;;;;;;;12.52;6.43;;;;;;;;;;5088479;28;20448;-69
2022/03/21 16:13:29;;;;;;;13.55;6.88;;;;;;;;;;5083963;28;20107;-69
2022/03/21 16:18:21;;;;;;;15.68;7.93;;;;;;;;;;5111609;27;20372;-67
2022/03/21 16:20:47;;;;;;;14.35;7.93;;;;;;;;;;5110714;28;20107;-69
2022/03/21 16:23:13;;;;;;;13.32;8.07;;;;;;;;;;5111062;28;20411;-68
2022/03/21 16:26:40;;;;;;;17.88;9.07;;;;;;;;;;5111020;27;20783;-68
2022/03/21 16:29:06;;;;;;;15.82;8.15;;;;;;;;;;5099618;28;20024;-70
2022/03/21 16:31:32;;;;;;;15.48;9.45;;;;;;;;;;5089130;28;20085;-70
2022/03/21 16:36:11;;;;;;;17.58;9.85;;;;;;;;;;5066054;28;20407;-68
2022/03/21 16:39:51;;;;;;;19.75;10.27;;;;;;;;;;5068910;28;20395;-69
2022/03/21 16:43:53;;;;;;;25.17;13.65;;;;;;;;;;5109772;27;20814;-68
2022/03/21 16:46:19;;;;;;;18.92;11.05;;;;;;;;;;5087348;28;20028;-68
2022/03/21 16:48:46;;;;;;;24.48;13.18;;;;;;;;;;5088121;28;20021;-68
2022/03/21 16:51:18;;;;;;;23.90;11.07;;;;;;;;;;5088541;28;20492;-68
2022/03/21 16:53:44;;;;;;;17.50;9.02;;;;;;;;;;5089352;28;20016;-68
2022/03/21 16:56:11;;;;;;;19.40;10.00;;;;;;;;;;5089214;28;20115;-68
2022/03/21 16:58:39;;;;;;;20.48;11.68;;;;;;;;;;5086862;28;20534;-69
2022/03/21 17:01:05;;;;;;;;;;;;;;;;;;5088183;28;20373;-69
2022/03/21 17:03:31;;;;;;;;;;;;;;;;;;5088695;28;19923;-68
2022/03/21 17:05:58;;;;;;;;;;;;;;;;;;5089782;28;19930;-68
2022/03/21 17:08:24;;;;;;;;;;;;;;;;;;5089244;28;19954;-68
2022/03/21 17:10:51;;;;;;;;;;;;;;;;;;5090046;28;19904;-69
2022/03/21 17:13:17;;;;;;;;;;;;;;;;;;5090502;28;19912;-69
2022/03/21 17:15:43;;;;;;;;;;;;;;;;;;5090184;28;19971;-68
2022/03/21 17:23:55;;;;;;;;;;;;;;;;;;5084959;28;19935;-68
2022/03/21 17:26:22;;;;;;;;;;;;;;;;;;5090635;28;20348;-68
2022/03/21 17:28:48;;;;;;;;;;;;;;;;;;5088916;28;19905;-68
2022/03/21 17:31:14;;;;;;;;;;;;;;;;;;5089743;28;19904;-67
2022/03/21 17:33:40;;;;;;;;;;;;;;;;;;5087828;28;19911;-69
2022/03/21 17:36:06;;;;;;;;;;;;;;;;;;5089373;28;19905;-69
2022/03/21 17:38:32;;;;;;;;;;;;;;;;;;5088378;28;19958;-68
2022/03/21 17:40:58;;;;;;;;;;;;;;;;;;5090149;28;19911;-69